KNJK/NJK METAR and TAF weather

Enter ICAO airport designator
Station Type Date Time Source
KNJK METAR 2021/07/30 06:56 UTC NOAA

KNJK 300656Z AUTO 15004KT 10SM CLR 34/16 A2976 RMK AO2 SLP093 T03440161 $


Station Type Date Time Source
KNJK Decoded METAR 2021/07/30 06:56 UTC NOAA

El Centro, Naval Air Facility, CA, United States (KNJK) 32-49-30N 115-39-38W -13M
Jul 30, 2021 - 02:56 AM EDT / 2021.07.30 0656 UTC
Wind: from the SSE (150 degrees) at 5 MPH (4 KT):0
Visibility: 10 mile(s):0
Sky conditions: clear
Temperature: 93.9 F (34.4 C)
Dew Point: 61.0 F (16.1 C)
Relative Humidity: 33%
Pressure (altimeter): 29.76 in. Hg (1007 hPa)
ob: KNJK 300656Z AUTO 15004KT 10SM CLR 34/16 A2976 RMK AO2 SLP093 T03440161
cycle: 7

Station Type Date Time Source
KNJK TAF 2021/07/30 07:16 UTC NOAA

TAF KNJK 3007/3107 VRB06KT 9999 BKN220 QNH2971INS
BECMG 3014/3016 13010KT 9999 BKN160 QNH2972INS
BECMG 3020/3022 13012G18KT 9999 VCTS OVC160 QNH2971INS
TEMPO 3022/3101 8000 TS
FM310200 14008KT 9999 OVC160 QNH2976INS AUTOMATED SENSOR METWATCH 3006 TIL 3013 T26/3013Z T42/3022Z FS30148

Example: see airport list